Time;durP1;ratioP1;P1;durP2;ratioP2;P2;SDS_P1;SDS_P2;PMS_P1;PMS_P2;Temp;Humidity;BMP_temperature;BMP_pressure;BME280_temperature;BME280_humidity;BME280_pressure;Samples;Min_cycle;Max_cycle;Signal;HPM_P1;HPM_P2
2022/08/16 00:02:13;;;;;;;12.70;11.40;;;21.00;99.90;;;;;;5091539;28;20607;-59
2022/08/16 00:04:40;;;;;;;11.93;10.73;;;21.00;99.90;;;;;;5092136;28;20533;-61
2022/08/16 00:07:07;;;;;;;12.37;11.27;;;21.00;99.90;;;;;;5091649;28;20974;-59
2022/08/16 00:09:34;;;;;;;11.27;10.27;;;21.00;99.90;;;;;;5092532;28;20558;-60
2022/08/16 00:12:03;;;;;;;12.67;11.57;;;21.00;99.90;;;;;;5094006;28;20556;-58
2022/08/16 00:14:33;;;;;;;12.30;11.00;;;21.00;99.90;;;;;;5092530;28;20533;-58
2022/08/16 00:17:01;;;;;;;11.20;10.10;;;21.00;99.90;;;;;;5092505;28;20925;-59
2022/08/16 00:19:30;;;;;;;11.43;10.40;;;21.00;99.90;;;;;;5091242;28;20542;-58
2022/08/16 00:21:58;;;;;;;10.70;9.47;;;20.90;99.90;;;;;;5092203;28;20561;-58
2022/08/16 00:24:27;;;;;;;11.30;10.17;;;20.90;99.90;;;;;;5092266;28;20458;-59
2022/08/16 00:26:54;;;;;;;11.00;9.80;;;20.90;99.90;;;;;;5099499;28;20538;-59
2022/08/16 00:29:23;;;;;;;11.57;10.37;;;20.90;99.90;;;;;;5097092;28;20965;-59
2022/08/16 00:31:52;;;;;;;11.50;10.40;;;20.80;99.90;;;;;;5094394;28;20482;-59
2022/08/16 00:34:21;;;;;;;11.20;10.10;;;20.80;99.90;;;;;;5081396;28;20573;-60
2022/08/16 00:36:49;;;;;;;12.77;10.47;;;20.70;99.90;;;;;;5086718;28;20478;-59
2022/08/16 00:39:18;;;;;;;12.60;11.40;;;20.70;99.90;;;;;;5096252;28;20488;-58
2022/08/16 00:41:48;;;;;;;11.57;10.57;;;20.60;99.90;;;;;;5096326;28;20478;-59
2022/08/16 00:44:17;;;;;;;12.80;11.63;;;20.60;99.90;;;;;;5096726;28;20553;-59
2022/08/16 00:46:51;;;;;;;11.30;10.23;;;20.50;99.90;;;;;;5098384;28;20533;-59
2022/08/16 00:49:19;;;;;;;11.90;10.87;;;20.50;99.90;;;;;;5101300;28;20486;-58
2022/08/16 00:51:47;;;;;;;12.27;11.13;;;20.40;99.90;;;;;;5101311;28;20506;-60
2022/08/16 00:54:14;;;;;;;11.17;10.07;;;20.40;99.90;;;;;;5101571;28;20486;-59
2022/08/16 00:56:45;;;;;;;11.87;10.77;;;20.40;99.90;;;;;;5101597;28;20445;-58
2022/08/16 00:59:14;;;;;;;10.60;9.60;;;20.40;99.90;;;;;;5100503;28;20491;-59
2022/08/16 01:01:43;;;;;;;12.70;11.50;;;20.40;99.90;;;;;;5100505;28;20513;-60
2022/08/16 01:04:13;;;;;;;12.83;11.47;;;20.30;99.90;;;;;;5094852;28;20462;-59
2022/08/16 01:06:40;;;;;;;11.10;10.00;;;20.30;99.90;;;;;;5094584;28;20458;-59
2022/08/16 01:09:08;;;;;;;12.73;11.53;;;20.20;99.90;;;;;;5096151;28;20486;-59
2022/08/16 01:11:37;;;;;;;12.53;11.40;;;20.20;99.90;;;;;;5096718;28;20468;-59
2022/08/16 01:14:11;;;;;;;11.30;10.20;;;20.20;99.90;;;;;;5096416;28;20499;-58
2022/08/16 01:16:38;;;;;;;12.17;10.87;;;20.10;99.90;;;;;;5096268;28;20415;-59
2022/08/16 01:19:13;;;;;;;11.47;9.90;;;20.10;99.90;;;;;;5096195;28;20532;-59
2022/08/16 01:21:50;;;;;;;11.53;10.17;;;20.10;99.90;;;;;;5099193;28;20527;-58
2022/08/16 01:24:31;;;;;;;11.47;10.30;;;20.10;99.90;;;;;;5100605;28;20477;-58
2022/08/16 01:27:02;;;;;;;12.33;10.37;;;20.00;99.90;;;;;;5102952;28;20969;-59
2022/08/16 01:29:36;;;;;;;11.27;10.17;;;20.00;99.90;;;;;;5106934;28;20960;-59
2022/08/16 01:32:04;;;;;;;10.70;9.80;;;19.90;99.90;;;;;;5104819;28;20570;-59
2022/08/16 01:34:31;;;;;;;12.70;10.90;;;19.90;99.90;;;;;;5107462;28;20442;-59
2022/08/16 01:37:04;;;;;;;13.17;10.50;;;19.90;99.90;;;;;;5107735;28;20449;-59
2022/08/16 01:39:33;;;;;;;12.33;11.23;;;19.90;99.90;;;;;;5100635;28;20519;-58
2022/08/16 01:42:01;;;;;;;11.03;9.87;;;19.80;99.90;;;;;;5096233;28;20475;-59
2022/08/16 01:44:29;;;;;;;14.83;11.27;;;19.80;99.90;;;;;;5094889;28;20946;-59
2022/08/16 01:46:56;;;;;;;11.70;10.60;;;19.80;99.90;;;;;;5093787;28;20976;-59
2022/08/16 01:49:27;;;;;;;10.60;9.70;;;19.80;99.90;;;;;;5095900;28;20438;-59
2022/08/16 01:51:57;;;;;;;11.33;10.17;;;19.80;99.90;;;;;;5093702;28;21056;-59
2022/08/16 01:54:24;;;;;;;11.20;10.00;;;19.70;99.90;;;;;;5095521;28;20427;-59
2022/08/16 01:56:53;;;;;;;12.23;10.83;;;19.70;99.90;;;;;;5096103;28;20522;-59
2022/08/16 01:59:22;;;;;;;11.87;10.77;;;19.70;99.90;;;;;;5096102;28;20546;-59
2022/08/16 02:01:51;;;;;;;15.53;11.07;;;19.60;99.90;;;;;;5095719;28;20999;-60
2022/08/16 02:04:18;;;;;;;15.77;10.90;;;19.60;99.90;;;;;;5093578;28;20570;-60
2022/08/16 02:06:46;;;;;;;14.10;12.27;;;19.60;99.90;;;;;;5095278;28;20529;-60
2022/08/16 02:09:13;;;;;;;13.20;11.67;;;19.60;99.90;;;;;;5094521;28;20466;-60
2022/08/16 02:11:43;;;;;;;13.57;11.83;;;19.50;99.90;;;;;;5095546;28;20558;-60
2022/08/16 02:14:12;;;;;;;12.87;11.57;;;19.50;99.90;;;;;;5094734;28;20575;-59
2022/08/16 02:16:41;;;;;;;11.97;10.80;;;19.50;99.90;;;;;;5095199;28;20572;-59
2022/08/16 02:19:09;;;;;;;14.17;12.73;;;19.50;99.90;;;;;;5096666;28;21003;-62
2022/08/16 02:21:37;;;;;;;13.13;11.83;;;19.50;99.90;;;;;;5095531;28;20524;-59
2022/08/16 02:24:05;;;;;;;11.47;10.37;;;19.50;99.90;;;;;;5095421;28;21010;-59
2022/08/16 02:26:32;;;;;;;11.40;10.40;;;19.50;99.90;;;;;;5095809;28;20529;-59
2022/08/16 02:29:00;;;;;;;11.47;10.30;;;19.50;99.90;;;;;;5095146;28;20438;-59
2022/08/16 02:31:28;;;;;;;12.53;11.13;;;19.50;99.90;;;;;;5095122;28;20454;-58
2022/08/16 02:33:56;;;;;;;10.67;9.67;;;19.50;99.90;;;;;;5093301;28;20553;-59
2022/08/16 02:36:23;;;;;;;11.30;10.20;;;19.50;99.90;;;;;;5095535;28;20561;-59
2022/08/16 02:38:50;;;;;;;11.50;10.50;;;19.50;99.90;;;;;;5095176;28;20525;-57
2022/08/16 02:41:17;;;;;;;14.50;11.67;;;19.50;99.90;;;;;;5095939;28;20667;-59
2022/08/16 02:43:44;;;;;;;11.83;10.77;;;19.40;99.90;;;;;;5095285;28;20442;-59
2022/08/16 02:46:12;;;;;;;12.90;11.70;;;19.40;99.90;;;;;;5093969;28;20533;-61
2022/08/16 02:48:40;;;;;;;11.63;10.60;;;19.40;99.90;;;;;;5091237;28;20460;-59
2022/08/16 02:51:10;;;;;;;14.10;11.30;;;19.30;99.90;;;;;;5093856;28;21005;-59
2022/08/16 02:53:39;;;;;;;15.83;11.40;;;19.30;99.90;;;;;;5095841;28;20464;-59
2022/08/16 02:56:08;;;;;;;16.00;11.10;;;19.30;99.90;;;;;;5096062;28;20847;-59
2022/08/16 02:58:35;;;;;;;12.67;11.47;;;19.30;99.90;;;;;;5094405;28;20461;-60
2022/08/16 03:01:02;;;;;;;12.97;11.77;;;19.20;99.90;;;;;;5094523;28;20462;-59
2022/08/16 03:03:30;;;;;;;12.93;11.63;;;19.20;99.90;;;;;;5093600;28;20469;-59
2022/08/16 03:05:58;;;;;;;13.77;10.90;;;19.20;99.90;;;;;;5095291;28;20449;-59
2022/08/16 03:08:25;;;;;;;12.67;11.37;;;19.20;99.90;;;;;;5093022;28;20605;-59
2022/08/16 03:10:53;;;;;;;12.50;11.30;;;19.20;99.90;;;;;;5094362;28;20545;-59
2022/08/16 03:13:21;;;;;;;11.77;10.47;;;19.20;99.90;;;;;;5094306;28;20493;-59
2022/08/16 03:15:51;;;;;;;14.43;11.13;;;19.20;99.90;;;;;;5092551;28;20474;-60
2022/08/16 03:18:18;;;;;;;12.37;11.13;;;19.20;99.90;;;;;;5094275;28;20461;-59
2022/08/16 03:20:45;;;;;;;12.40;11.20;;;19.20;99.90;;;;;;5093774;28;21042;-59
2022/08/16 03:23:14;;;;;;;10.90;9.90;;;19.10;99.90;;;;;;5094004;28;20452;-59
2022/08/16 03:25:41;;;;;;;13.70;11.17;;;19.10;99.90;;;;;;5093663;28;20521;-59
2022/08/16 03:28:10;;;;;;;12.70;11.50;;;19.00;99.90;;;;;;5094563;28;20537;-59
2022/08/16 03:30:37;;;;;;;12.43;10.60;;;19.00;99.90;;;;;;5092232;28;20493;-60
2022/08/16 03:33:05;;;;;;;13.20;11.90;;;19.00;99.90;;;;;;5093554;28;20872;-59
2022/08/16 03:35:35;;;;;;;12.60;11.30;;;19.00;99.90;;;;;;5094867;28;20473;-59
2022/08/16 03:38:05;;;;;;;11.90;10.70;;;18.90;99.90;;;;;;5095550;28;20437;-58
2022/08/16 03:40:36;;;;;;;13.30;11.87;;;18.90;99.90;;;;;;5095822;28;20523;-59
2022/08/16 03:43:05;;;;;;;12.53;11.43;;;18.90;99.90;;;;;;5095136;28;20449;-58
2022/08/16 03:45:32;;;;;;;13.97;12.57;;;18.80;99.90;;;;;;5095923;28;20442;-58
2022/08/16 03:48:00;;;;;;;13.10;11.90;;;18.90;99.90;;;;;;5094241;28;20544;-58
2022/08/16 03:50:27;;;;;;;11.23;10.33;;;18.90;99.90;;;;;;5093936;28;20503;-60
2022/08/16 03:52:55;;;;;;;12.83;11.53;;;18.80;99.90;;;;;;5092509;28;20954;-59
2022/08/16 03:55:22;;;;;;;14.50;13.00;;;18.80;99.90;;;;;;5093374;28;20581;-59
2022/08/16 03:57:52;;;;;;;15.43;12.93;;;18.80;99.90;;;;;;5091784;28;20454;-60
2022/08/16 04:00:24;;;;;;;13.80;12.40;;;18.80;99.90;;;;;;5093078;28;20992;-60
2022/08/16 04:02:52;;;;;;;15.03;11.07;;;18.80;99.90;;;;;;5094130;28;20866;-58
2022/08/16 04:05:19;;;;;;;12.20;11.00;;;18.80;99.90;;;;;;5092858;28;20462;-59
2022/08/16 04:10:12;;;;;;;12.87;11.60;;;18.90;99.90;;;;;;5091057;27;20561;-58
2022/08/16 04:12:40;;;;;;;19.40;13.43;;;18.90;99.90;;;;;;5070845;28;20428;-59
2022/08/16 04:15:10;;;;;;;14.43;12.50;;;19.00;99.90;;;;;;5071520;28;20494;-59
2022/08/16 04:17:37;;;;;;;14.80;13.23;;;19.00;99.90;;;;;;5070737;28;20443;-59
2022/08/16 04:20:07;;;;;;;14.53;12.60;;;19.00;99.90;;;;;;5052136;28;20889;-58
2022/08/16 04:22:35;;;;;;;13.53;12.00;;;19.10;99.90;;;;;;5050143;28;20465;-58
2022/08/16 04:25:02;;;;;;;13.27;12.07;;;19.10;99.90;;;;;;5051259;28;20470;-59
2022/08/16 04:27:32;;;;;;;17.03;13.10;;;19.20;99.90;;;;;;5050637;28;20464;-58
2022/08/16 04:29:59;;;;;;;18.03;12.60;;;19.20;99.90;;;;;;5050210;28;20480;-59
2022/08/16 04:32:26;;;;;;;13.47;12.17;;;19.30;99.90;;;;;;5049938;28;20916;-60
2022/08/16 04:34:54;;;;;;;13.83;12.43;;;19.40;99.90;;;;;;5049748;28;20539;-58
2022/08/16 04:37:21;;;;;;;14.70;13.20;;;19.60;99.90;;;;;;5050433;28;20959;-58
2022/08/16 04:39:48;;;;;;;13.10;11.90;;;19.70;99.90;;;;;;5049704;28;20531;-58
2022/08/16 04:42:17;;;;;;;13.63;12.23;;;19.90;99.90;;;;;;5050706;28;20471;-59
2022/08/16 04:44:46;;;;;;;11.90;10.70;;;20.00;99.90;;;;;;5049742;28;20456;-59
2022/08/16 04:47:14;;;;;;;13.27;12.03;;;20.20;99.90;;;;;;5051319;28;20440;-60
2022/08/16 04:49:41;;;;;;;13.10;10.70;;;20.30;99.90;;;;;;5050180;28;20502;-58
2022/08/16 04:52:08;;;;;;;12.57;11.37;;;20.50;99.90;;;;;;5050438;28;20576;-59
2022/08/16 04:54:36;;;;;;;11.20;10.00;;;20.70;99.90;;;;;;5049548;28;20471;-59
2022/08/16 04:57:03;;;;;;;14.00;11.47;;;20.80;99.90;;;;;;5049392;28;20444;-59
2022/08/16 04:59:30;;;;;;;12.00;10.80;;;20.90;99.90;;;;;;5049438;28;20453;-59
2022/08/16 05:01:58;;;;;;;12.93;10.77;;;21.10;99.90;;;;;;5068904;28;20491;-58
2022/08/16 05:04:26;;;;;;;10.97;9.97;;;21.30;99.90;;;;;;5070988;28;20448;-59
2022/08/16 05:06:53;;;;;;;11.10;10.20;;;21.40;99.90;;;;;;5084327;28;20459;-58
2022/08/16 05:09:20;;;;;;;12.90;11.10;;;21.60;99.90;;;;;;5069021;28;20490;-59
2022/08/16 05:11:47;;;;;;;12.40;10.83;;;21.70;99.90;;;;;;5069535;28;20515;-59
2022/08/16 05:14:14;;;;;;;11.10;10.00;;;21.80;99.90;;;;;;5069216;28;20451;-58
2022/08/16 05:16:43;;;;;;;11.53;10.33;;;21.80;99.90;;;;;;5068780;28;20474;-58
2022/08/16 05:19:12;;;;;;;10.10;9.10;;;21.90;99.90;;;;;;5068947;28;20443;-59
2022/08/16 05:21:39;;;;;;;13.13;9.67;;;22.00;99.90;;;;;;5056057;28;20486;-59
2022/08/16 05:24:08;;;;;;;15.23;10.07;;;22.10;99.90;;;;;;5057136;28;20451;-58
2022/08/16 05:26:36;;;;;;;9.50;8.60;;;22.20;99.90;;;;;;5055638;28;20505;-58
2022/08/16 05:29:05;;;;;;;12.13;9.30;;;22.30;99.90;;;;;;5055799;28;20479;-58
2022/08/16 05:31:33;;;;;;;10.50;9.13;;;22.40;99.90;;;;;;5035474;28;20469;-57
2022/08/16 05:34:02;;;;;;;8.90;8.00;;;22.50;99.90;;;;;;5035799;28;20453;-58
2022/08/16 05:36:31;;;;;;;10.90;9.80;;;22.50;99.90;;;;;;5035486;28;20520;-58
2022/08/16 05:38:59;;;;;;;10.40;9.50;;;22.50;99.90;;;;;;5045120;28;20472;-58
2022/08/16 05:41:27;;;;;;;9.77;8.40;;;22.50;99.90;;;;;;5055770;28;20476;-57
2022/08/16 05:43:55;;;;;;;9.20;8.30;;;22.50;99.90;;;;;;5055638;28;20450;-57
2022/08/16 05:46:22;;;;;;;8.23;7.50;;;22.50;99.90;;;;;;5055756;28;20491;-57
2022/08/16 05:48:49;;;;;;;9.33;8.50;;;22.40;99.90;;;;;;5055104;28;20538;-57
2022/08/16 05:51:17;;;;;;;11.20;8.70;;;22.50;99.90;;;;;;5055545;28;20471;-57
2022/08/16 05:53:46;;;;;;;8.77;7.87;;;22.50;99.70;;;;;;5055185;28;20965;-57
2022/08/16 05:56:13;;;;;;;9.17;8.23;;;22.60;99.50;;;;;;5055696;28;20547;-58
2022/08/16 05:58:41;;;;;;;9.17;8.30;;;22.70;99.30;;;;;;5055038;28;20490;-57
2022/08/16 06:01:08;;;;;;;8.43;7.73;;;22.80;99.10;;;;;;5054812;28;20464;-57
2022/08/16 06:03:36;;;;;;;8.80;8.00;;;22.90;98.70;;;;;;5055113;28;20451;-58
2022/08/16 06:06:04;;;;;;;8.83;7.90;;;22.90;98.40;;;;;;5053460;28;20835;-59
2022/08/16 06:08:31;;;;;;;9.37;8.47;;;22.90;98.00;;;;;;5054858;28;20523;-58
2022/08/16 06:11:00;;;;;;;8.47;7.00;;;22.70;97.80;;;;;;5045387;28;20492;-57
2022/08/16 06:13:27;;;;;;;9.57;7.87;;;22.70;97.70;;;;;;5044768;28;20951;-58
2022/08/16 06:15:55;;;;;;;8.30;7.50;;;22.80;97.60;;;;;;5063369;28;20453;-59
2022/08/16 06:18:22;;;;;;;8.60;7.37;;;22.80;97.50;;;;;;5055096;28;20534;-57
2022/08/16 06:20:50;;;;;;;7.47;6.87;;;22.90;97.30;;;;;;5054533;28;20568;-56
2022/08/16 06:23:17;;;;;;;11.53;7.40;;;22.90;97.10;;;;;;5053529;28;20489;-58
2022/08/16 06:25:45;;;;;;;8.43;7.63;;;22.90;96.90;;;;;;5054726;28;20527;-60
2022/08/16 06:28:13;;;;;;;9.00;7.20;;;22.90;96.70;;;;;;5058147;28;20484;-58
2022/08/16 06:30:41;;;;;;;10.80;9.73;;;22.90;96.70;;;;;;5033974;28;20491;-58
2022/08/16 06:33:08;;;;;;;7.60;6.73;;;23.00;96.60;;;;;;5033672;28;20543;-58
2022/08/16 06:35:36;;;;;;;12.03;6.57;;;23.00;96.40;;;;;;5034531;28;20447;-57
2022/08/16 06:38:04;;;;;;;7.43;6.73;;;23.00;96.10;;;;;;5034539;28;20824;-58
2022/08/16 06:40:31;;;;;;;9.03;7.00;;;23.10;96.10;;;;;;5033654;28;20502;-60
2022/08/16 06:42:59;;;;;;;9.87;7.57;;;23.20;95.90;;;;;;5034494;28;20483;-59
2022/08/16 06:45:28;;;;;;;8.63;7.53;;;23.20;95.50;;;;;;5034680;28;20458;-58
2022/08/16 06:47:56;;;;;;;9.03;7.07;;;23.20;95.20;;;;;;5034718;28;20524;-58
2022/08/16 06:50:24;;;;;;;7.30;6.67;;;23.30;95.20;;;;;;5045846;28;20483;-58
2022/08/16 06:52:51;;;;;;;10.67;7.00;;;23.40;95.10;;;;;;5054321;28;20462;-58
2022/08/16 06:55:18;;;;;;;9.57;6.20;;;23.60;94.90;;;;;;5055874;28;20492;-58
2022/08/16 06:57:46;;;;;;;9.23;7.13;;;23.70;94.50;;;;;;5057795;28;20540;-59
2022/08/16 07:00:14;;;;;;;7.23;6.47;;;23.80;94.10;;;;;;5034923;28;20514;-59
2022/08/16 07:02:45;;;;;;;6.70;6.03;;;23.90;93.50;;;;;;5043027;28;20472;-58
2022/08/16 07:05:14;;;;;;;6.90;6.30;;;24.10;92.90;;;;;;5034353;28;20460;-59
2022/08/16 07:07:43;;;;;;;6.80;6.30;;;24.20;92.30;;;;;;5043646;28;20466;-54
2022/08/16 07:10:10;;;;;;;6.20;5.70;;;24.10;91.70;;;;;;5054457;28;20811;-57
2022/08/16 07:12:38;;;;;;;8.57;5.80;;;24.20;91.10;;;;;;5058627;28;21032;-59
2022/08/16 07:15:06;;;;;;;9.30;6.50;;;24.20;90.70;;;;;;5061436;28;20472;-58
2022/08/16 07:17:35;;;;;;;7.00;5.77;;;24.30;90.30;;;;;;5053049;28;20487;-59
2022/08/16 07:20:06;;;;;;;5.97;5.43;;;24.50;89.60;;;;;;5053977;28;20496;-58
2022/08/16 07:22:34;;;;;;;5.97;5.47;;;24.60;88.20;;;;;;5051031;28;20836;-58
2022/08/16 07:25:01;;;;;;;5.50;5.10;;;24.70;87.00;;;;;;5049285;28;20460;-59
2022/08/16 07:27:28;;;;;;;6.23;4.93;;;24.80;85.20;;;;;;5073878;28;20532;-60
2022/08/16 07:29:55;;;;;;;7.00;4.50;;;24.90;83.40;;;;;;5059668;28;20483;-58
2022/08/16 07:32:23;;;;;;;6.00;5.00;;;25.00;81.80;;;;;;5056955;28;20469;-59
2022/08/16 07:34:50;;;;;;;5.63;5.13;;;25.10;80.70;;;;;;5054028;28;20533;-59
2022/08/16 07:37:19;;;;;;;6.37;5.13;;;25.10;79.90;;;;;;5053398;28;20444;-58
2022/08/16 07:39:46;;;;;;;6.33;5.53;;;25.10;78.70;;;;;;5047568;28;20533;-59
2022/08/16 07:42:13;;;;;;;6.60;6.00;;;25.00;78.60;;;;;;5033956;28;20478;-58
2022/08/16 07:44:41;;;;;;;6.20;5.60;;;25.00;78.80;;;;;;5033997;28;20465;-58
2022/08/16 07:47:08;;;;;;;7.07;6.23;;;25.00;78.80;;;;;;5034015;28;20548;-58
2022/08/16 07:49:35;;;;;;;6.43;5.60;;;25.10;78.70;;;;;;5033524;28;20585;-59
2022/08/16 07:52:03;;;;;;;7.37;5.80;;;25.10;78.40;;;;;;5034225;28;20549;-59
2022/08/16 07:54:31;;;;;;;7.30;5.53;;;25.20;78.10;;;;;;5043574;28;20498;-58
2022/08/16 07:56:58;;;;;;;5.90;5.30;;;25.30;77.90;;;;;;5053843;28;20538;-59
2022/08/16 07:59:26;;;;;;;5.80;5.23;;;25.40;77.20;;;;;;5052557;28;20533;-60
2022/08/16 08:01:54;;;;;;;7.43;4.97;;;25.60;76.30;;;;;;5048945;28;20478;-57
2022/08/16 08:04:22;;;;;;;6.23;5.73;;;25.70;75.20;;;;;;5052926;28;20435;-56
2022/08/16 08:06:50;;;;;;;6.70;5.60;;;25.90;73.90;;;;;;5034014;28;20829;-58
2022/08/16 08:09:18;;;;;;;7.20;5.20;;;26.00;72.60;;;;;;5032600;28;20490;-60
2022/08/16 08:11:48;;;;;;;6.40;5.80;;;26.20;71.80;;;;;;5033251;28;20905;-58
2022/08/16 08:14:15;;;;;;;6.63;5.90;;;26.30;71.00;;;;;;5033120;28;20429;-58
2022/08/16 08:16:43;;;;;;;6.40;5.80;;;26.40;70.20;;;;;;5033045;28;20853;-59
2022/08/16 08:19:11;;;;;;;5.77;5.27;;;26.50;69.40;;;;;;5032604;28;20488;-58
2022/08/16 08:21:40;;;;;;;7.33;5.40;;;26.60;68.90;;;;;;5033705;28;20485;-60
2022/08/16 08:24:08;;;;;;;6.80;6.20;;;26.60;68.20;;;;;;5033404;28;20502;-59
2022/08/16 08:26:36;;;;;;;8.43;5.23;;;26.70;67.80;;;;;;5033581;28;20446;-57
2022/08/16 08:29:06;;;;;;;6.03;5.50;;;26.70;67.30;;;;;;5035507;28;20938;-59
2022/08/16 08:31:35;;;;;;;5.60;4.70;;;26.80;67.00;;;;;;5059443;28;20491;-60
2022/08/16 08:34:02;;;;;;;9.20;5.80;;;26.80;66.40;;;;;;5058998;28;20450;-60
2022/08/16 08:36:33;;;;;;;6.20;5.27;;;26.90;65.50;;;;;;5062440;28;20472;-58
2022/08/16 08:39:04;;;;;;;4.63;4.23;;;26.90;64.70;;;;;;5060838;28;20509;-58
2022/08/16 08:41:31;;;;;;;5.60;5.20;;;27.00;64.20;;;;;;5055807;28;20487;-57
2022/08/16 08:43:59;;;;;;;5.40;4.43;;;27.00;63.60;;;;;;5065167;22;20508;-59
2022/08/16 08:46:28;;;;;;;5.87;5.27;;;27.10;63.20;;;;;;5032717;28;20520;-59
2022/08/16 08:48:56;;;;;;;6.53;4.73;;;27.10;62.80;;;;;;5033088;28;20459;-59
2022/08/16 08:51:24;;;;;;;5.70;5.17;;;27.20;62.40;;;;;;5032494;28;20486;-59
2022/08/16 08:53:51;;;;;;;5.63;5.00;;;27.20;62.10;;;;;;5032950;28;20476;-59
2022/08/16 08:56:19;;;;;;;5.57;5.07;;;27.40;62.00;;;;;;5035357;28;20453;-59
2022/08/16 08:58:47;;;;;;;4.93;4.40;;;27.40;61.50;;;;;;5036451;28;20895;-61
2022/08/16 09:01:16;;;;;;;5.30;4.90;;;27.40;61.20;;;;;;5037120;28;20822;-59
2022/08/16 09:03:45;;;;;;;6.13;4.80;;;27.50;60.80;;;;;;5036367;28;20471;-59
2022/08/16 09:06:12;;;;;;;5.53;5.03;;;27.60;60.30;;;;;;5036371;28;20457;-59
2022/08/16 09:08:39;;;;;;;9.40;5.67;;;27.60;60.00;;;;;;5036365;28;20450;-58
2022/08/16 09:11:07;;;;;;;5.53;4.77;;;27.70;59.80;;;;;;5036146;28;20488;-58
2022/08/16 09:13:34;;;;;;;5.37;4.97;;;27.90;59.40;;;;;;5036259;28;20518;-59
2022/08/16 09:16:02;;;;;;;5.47;4.97;;;28.00;58.90;;;;;;5036849;28;20453;-58
2022/08/16 09:18:29;;;;;;;6.17;5.07;;;28.10;58.50;;;;;;5036310;28;20454;-60
2022/08/16 09:20:58;;;;;;;6.23;4.50;;;28.20;58.10;;;;;;5036372;28;20444;-59
2022/08/16 09:23:26;;;;;;;4.80;4.33;;;28.30;57.60;;;;;;5036121;28;20457;-59
2022/08/16 09:25:53;;;;;;;7.17;4.37;;;28.40;57.10;;;;;;5035893;28;20936;-60
2022/08/16 09:28:21;;;;;;;8.73;4.93;;;28.40;56.70;;;;;;5035741;28;20452;-60
2022/08/16 09:30:49;;;;;;;5.10;4.60;;;28.50;56.40;;;;;;5035720;28;20480;-59
2022/08/16 09:33:18;;;;;;;4.73;4.30;;;28.60;56.20;;;;;;5035311;28;20458;-59
2022/08/16 09:35:46;;;;;;;5.90;5.40;;;28.70;55.90;;;;;;5035524;28;20447;-59
2022/08/16 09:38:15;;;;;;;5.60;4.50;;;28.80;55.60;;;;;;5035292;28;20448;-59
2022/08/16 09:40:45;;;;;;;6.10;5.10;;;28.90;55.50;;;;;;5034904;28;20990;-59
2022/08/16 09:43:16;;;;;;;6.23;5.00;;;28.90;55.10;;;;;;5035097;28;20563;-60
2022/08/16 09:45:44;;;;;;;6.33;5.37;;;29.00;54.80;;;;;;5034864;28;20456;-58
2022/08/16 09:48:13;;;;;;;7.60;4.97;;;29.00;54.70;;;;;;5035218;28;20825;-60
2022/08/16 09:50:42;;;;;;;5.93;5.40;;;29.00;54.60;;;;;;5035377;28;20478;-59
2022/08/16 09:53:13;;;;;;;5.30;4.80;;;29.10;54.80;;;;;;5035305;28;20452;-58
2022/08/16 09:55:42;;;;;;;5.57;4.80;;;29.10;54.40;;;;;;5034685;28;20456;-57
2022/08/16 09:58:10;;;;;;;5.70;5.13;;;29.10;54.40;;;;;;5034923;28;20872;-58
2022/08/16 10:00:37;;;;;;;4.90;4.50;;;29.20;54.10;;;;;;5034880;28;20549;-60
2022/08/16 10:03:04;;;;;;;5.00;4.50;;;29.40;53.70;;;;;;5034664;28;20473;-59
2022/08/16 10:05:35;;;;;;;4.93;4.40;;;29.40;53.10;;;;;;5034769;28;20479;-59
2022/08/16 10:08:04;;;;;;;4.70;4.03;;;29.40;52.90;;;;;;5035182;28;20464;-59
2022/08/16 10:10:32;;;;;;;5.57;5.03;;;29.20;52.60;;;;;;5034522;28;20809;-60
2022/08/16 10:13:13;;;;;;;5.37;4.87;;;29.10;52.60;;;;;;5034887;28;20446;-59
2022/08/16 10:15:43;;;;;;;6.37;5.10;;;29.20;52.70;;;;;;5034091;28;20958;-59
2022/08/16 10:18:12;;;;;;;5.33;4.83;;;29.40;52.40;;;;;;5034462;28;20648;-59
2022/08/16 10:20:42;;;;;;;5.03;4.60;;;29.60;52.00;;;;;;5034667;28;20447;-61
2022/08/16 10:23:11;;;;;;;5.00;4.17;;;29.90;51.60;;;;;;5034372;28;20795;-60
2022/08/16 10:25:43;;;;;;;4.20;3.80;;;30.10;51.10;;;;;;5034016;28;20956;-59
2022/08/16 10:28:13;;;;;;;5.27;4.77;;;30.10;50.40;;;;;;5033874;28;20447;-60
2022/08/16 10:30:43;;;;;;;5.20;4.80;;;30.20;50.30;;;;;;5034031;28;21075;-60
2022/08/16 10:33:12;;;;;;;5.30;4.80;;;30.30;50.10;;;;;;5033763;28;20445;-59
2022/08/16 10:35:39;;;;;;;5.27;4.70;;;30.30;49.90;;;;;;5033689;28;20445;-58
2022/08/16 10:38:06;;;;;;;5.40;4.50;;;30.10;50.20;;;;;;5034558;28;20515;-59
2022/08/16 10:40:34;;;;;;;6.07;4.87;;;29.80;50.60;;;;;;5034217;28;20445;-59
2022/08/16 10:43:02;;;;;;;5.87;5.27;;;29.40;51.10;;;;;;5033905;28;20454;-59
2022/08/16 10:45:32;;;;;;;5.23;4.83;;;29.20;51.60;;;;;;5033691;28;20536;-58
2022/08/16 10:48:00;;;;;;;5.60;4.63;;;29.00;51.80;;;;;;5034625;28;20457;-59
2022/08/16 10:50:28;;;;;;;7.60;5.90;;;28.90;51.90;;;;;;5033803;28;20490;-59
2022/08/16 10:52:56;;;;;;;6.43;5.67;;;28.90;52.10;;;;;;5033923;28;20456;-60
2022/08/16 10:55:24;;;;;;;6.83;4.50;;;29.00;52.20;;;;;;5033913;28;20482;-59
2022/08/16 10:57:55;;;;;;;4.93;4.47;;;29.20;51.70;;;;;;5033572;28;20546;-60
2022/08/16 11:00:22;;;;;;;6.50;5.90;;;29.30;51.10;;;;;;5033699;28;20562;-59
2022/08/16 11:02:52;;;;;;;5.63;5.17;;;29.50;50.90;;;;;;5033835;28;20505;-59
2022/08/16 11:05:19;;;;;;;5.17;4.70;;;29.70;50.10;;;;;;5033832;28;20475;-60
2022/08/16 11:07:48;;;;;;;5.30;4.80;;;29.80;49.60;;;;;;5033485;28;20483;-59
2022/08/16 11:10:22;;;;;;;6.20;4.90;;;29.90;49.20;;;;;;5033338;28;20493;-58
2022/08/16 11:12:50;;;;;;;6.57;6.00;;;30.10;48.90;;;;;;5033512;28;20436;-59
2022/08/16 11:15:17;;;;;;;4.63;4.23;;;30.30;48.60;;;;;;5033144;28;20984;-59
2022/08/16 11:17:46;;;;;;;4.90;4.40;;;30.50;48.00;;;;;;5032752;28;20448;-60
2022/08/16 11:20:16;;;;;;;4.40;4.03;;;30.40;47.50;;;;;;5033834;28;20515;-60
2022/08/16 11:22:44;;;;;;;4.67;4.27;;;30.50;47.40;;;;;;5033439;28;20434;-60
2022/08/16 11:25:11;;;;;;;4.73;4.33;;;30.40;47.10;;;;;;5033216;28;20472;-60
2022/08/16 11:27:39;;;;;;;5.50;4.37;;;30.30;47.20;;;;;;5032771;28;20549;-59
2022/08/16 11:30:09;;;;;;;6.17;4.43;;;30.20;47.30;;;;;;5033109;28;20442;-60
2022/08/16 11:32:36;;;;;;;5.30;4.90;;;30.40;47.10;;;;;;5033291;28;20450;-59
2022/08/16 11:35:06;;;;;;;4.50;3.97;;;30.70;46.60;;;;;;5032815;28;20473;-61
2022/08/16 11:37:35;;;;;;;5.97;4.30;;;31.00;46.10;;;;;;5033295;28;20546;-59
2022/08/16 11:40:04;;;;;;;4.90;4.50;;;31.40;45.60;;;;;;5032719;28;20459;-59
2022/08/16 11:42:31;;;;;;;5.33;4.73;;;31.70;44.90;;;;;;5033802;28;20451;-59
2022/08/16 11:44:59;;;;;;;4.97;4.47;;;32.00;44.40;;;;;;5032849;28;20586;-59
2022/08/16 11:47:26;;;;;;;5.90;4.10;;;32.20;43.90;;;;;;5033179;28;20448;-59
2022/08/16 11:49:53;;;;;;;6.50;5.87;;;32.20;43.20;;;;;;5032875;28;20567;-59
2022/08/16 11:52:22;;;;;;;4.77;4.37;;;32.30;42.90;;;;;;5033540;28;20916;-59
2022/08/16 11:54:51;;;;;;;5.57;4.63;;;32.40;42.30;;;;;;5032792;28;20479;-60
2022/08/16 11:57:18;;;;;;;4.07;3.77;;;32.90;41.70;;;;;;5033579;28;20535;-60
2022/08/16 11:59:46;;;;;;;5.90;4.20;;;33.60;40.80;;;;;;5033314;28;20603;-60
2022/08/16 12:02:13;;;;;;;5.30;4.00;;;34.00;39.70;;;;;;5033021;28;20459;-60
2022/08/16 12:04:40;;;;;;;4.20;3.80;;;34.50;39.10;;;;;;5032787;28;20467;-61
2022/08/16 12:07:09;;;;;;;4.50;4.10;;;35.00;38.30;;;;;;5032876;28;20483;-59
2022/08/16 12:09:36;;;;;;;4.40;4.10;;;35.40;37.40;;;;;;5033351;28;20445;-60
2022/08/16 12:12:05;;;;;;;4.63;4.20;;;35.60;36.70;;;;;;5032904;28;20591;-58
2022/08/16 12:14:33;;;;;;;4.93;4.50;;;35.20;36.90;;;;;;5033304;28;20468;-61
2022/08/16 12:17:02;;;;;;;4.93;4.53;;;34.60;37.80;;;;;;5033158;28;20444;-59
2022/08/16 12:19:30;;;;;;;5.73;3.80;;;34.00;38.70;;;;;;5033033;28;20449;-58
2022/08/16 12:21:58;;;;;;;3.90;3.60;;;33.40;39.10;;;;;;5032869;28;20449;-60
2022/08/16 12:24:26;;;;;;;4.40;4.00;;;33.00;39.50;;;;;;5032755;28;20475;-60
2022/08/16 12:26:54;;;;;;;4.63;4.33;;;33.10;39.50;;;;;;5032662;28;20551;-60
2022/08/16 12:29:23;;;;;;;5.37;4.20;;;33.10;39.40;;;;;;5032540;28;20542;-60
2022/08/16 12:31:50;;;;;;;4.37;3.97;;;32.70;39.60;;;;;;5036349;28;20484;-59
2022/08/16 12:34:18;;;;;;;5.90;5.20;;;32.10;40.40;;;;;;5036959;28;20471;-60
2022/08/16 12:36:46;;;;;;;6.80;4.50;;;31.80;41.30;;;;;;5036670;28;20447;-59
2022/08/16 12:39:14;;;;;;;4.67;4.27;;;31.70;41.80;;;;;;5036761;28;20868;-59
2022/08/16 12:41:45;;;;;;;5.23;4.70;;;31.50;42.00;;;;;;5036719;28;20462;-61
2022/08/16 12:44:13;;;;;;;5.03;4.10;;;31.50;42.40;;;;;;5035972;28;20482;-60
2022/08/16 12:48:56;;;;;;;4.33;4.03;;;31.60;42.20;;;;;;5036216;28;20494;-60